Time;durP1;ratioP1;P1;durP2;ratioP2;P2;SDS_P1;SDS_P2;PMS_P1;PMS_P2;Temp;Humidity;BMP_temperature;BMP_pressure;BME280_temperature;BME280_humidity;BME280_pressure;Samples;Min_cycle;Max_cycle;Signal;HPM_P1;HPM_P2
2023/05/23 00:08:47;;;;;;;1999.90;999.90;;;17.00;99.90;;;;;;6768565;88;20191;-81
2023/05/23 00:18:49;;;;;;;1999.90;999.90;;;16.90;99.90;;;;;;6767969;88;20767;-81
2023/05/23 00:28:49;;;;;;;1999.90;999.90;;;16.60;99.90;;;;;;6767125;88;20782;-81
2023/05/23 00:59:01;;;;;;;1999.90;999.90;;;16.20;99.90;;;;;;7224236;76;20240;31
2023/05/23 01:19:10;;;;;;;1999.90;999.90;;;15.90;99.90;;;;;;7655250;76;20341;31
2023/05/23 01:29:16;;;;;;;1999.90;999.90;;;15.80;99.90;;;;;;6764957;88;20162;-80
2023/05/23 01:39:17;;;;;;;1999.90;999.90;;;15.70;99.90;;;;;;6765008;88;20158;-80
2023/05/23 02:09:25;;;;;;;1999.90;999.90;;;15.90;99.90;;;;;;6765635;88;20185;-80
2023/05/23 02:29:30;;;;;;;1999.90;999.90;;;16.10;99.90;;;;;;6765491;88;20174;-80
2023/05/23 02:59:42;;;;;;;1999.90;999.90;;;16.20;99.90;;;;;;6770597;88;20158;-82
2023/05/23 03:50:05;;;;;;;1999.90;999.90;;;15.90;99.90;;;;;;6663654;89;20181;-80
2023/05/23 04:00:13;;;;;;;1999.90;999.90;;;16.00;99.90;;;;;;6646434;89;20278;-83
2023/05/23 06:01:58;;;;;;;1999.90;999.90;;;15.10;99.90;;;;;;6713186;87;20879;-85
2023/05/23 06:11:59;;;;;;;1999.90;999.90;;;15.00;99.90;;;;;;6712847;87;20163;-81
2023/05/23 06:21:59;;;;;;;1999.90;999.90;;;15.10;99.90;;;;;;6714670;87;20166;-82
2023/05/23 06:32:00;;;;;;;1999.90;999.90;;;15.30;99.90;;;;;;6696168;88;20772;-84
2023/05/23 07:32:18;;;;;;;1999.90;999.90;;;15.50;99.90;;;;;;6772606;87;20184;-79
2023/05/23 07:42:18;;;;;;;1999.90;999.90;;;15.40;99.90;;;;;;6749124;88;20216;-80
2023/05/23 07:52:19;;;;;;;1999.90;999.90;;;15.40;99.90;;;;;;6749195;88;20196;-80
2023/05/23 08:02:20;;;;;;;1999.90;999.90;;;15.60;99.90;;;;;;6744080;88;20240;-80
2023/05/23 08:12:20;;;;;;;1999.90;999.90;;;15.80;99.90;;;;;;6775818;87;20157;-81
2023/05/23 08:22:24;;;;;;;1999.90;999.90;;;16.10;99.90;;;;;;6782907;87;20153;-80
2023/05/23 08:32:25;;;;;;;1999.90;999.90;;;16.10;99.90;;;;;;6767945;87;20166;-80
2023/05/23 08:42:25;;;;;;;1999.90;999.90;;;16.20;99.90;;;;;;6767913;87;20199;-80
2023/05/23 08:52:28;;;;;;;1999.90;999.90;;;16.20;99.90;;;;;;6777221;87;20302;-80
2023/05/23 09:02:31;;;;;;;1999.90;999.90;;;16.30;99.90;;;;;;6784856;87;20233;-79
2023/05/23 09:12:35;;;;;;;1999.90;999.90;;;16.10;99.90;;;;;;6784580;87;20281;-81
2023/05/23 10:12:56;;;;;;;1999.90;999.90;;;16.00;99.90;;;;;;7488818;77;21198;31
2023/05/23 10:43:35;;;;;;;1999.90;999.90;;;15.40;99.90;;;;;;7534091;77;21519;31
2023/05/23 11:03:40;;;;;;;1999.90;999.90;;;15.10;99.90;;;;;;7109606;77;20515;-82
2023/05/23 11:33:52;;;;;;;1999.90;999.90;;;17.50;99.90;;;;;;7547318;77;20223;31
2023/05/23 12:34:11;;;;;;;1999.90;999.90;;;18.90;99.90;;;;;;7528241;76;20257;31
2023/05/23 12:44:53;;;;;;;1999.90;999.90;;;20.20;99.90;;;;;;5144721;76;20178;-83
2023/05/23 12:54:53;;;;;;;1999.90;999.90;;;19.90;99.90;;;;;;6719426;88;20225;-84
2023/05/23 13:04:54;;;;;;;1999.90;999.90;;;19.60;99.90;;;;;;6733330;88;20223;-84
2023/05/23 13:14:56;;;;;;;1999.90;999.90;;;19.60;99.90;;;;;;6729764;88;20162;-83
2023/05/23 13:24:57;;;;;;;1999.90;999.90;;;18.70;99.90;;;;;;6733304;88;20266;-84
2023/05/23 13:34:57;;;;;;;1999.90;999.90;;;18.20;99.90;;;;;;6732892;88;20886;-84
2023/05/23 13:44:58;;;;;;;1999.90;999.90;;;18.20;99.90;;;;;;6680113;88;20245;-81
2023/05/23 13:55:00;;;;;;;1999.90;999.90;;;18.60;99.90;;;;;;6679374;88;20186;-83
2023/05/23 14:05:00;;;;;;;1999.90;999.90;;;19.10;99.90;;;;;;6679182;89;20183;-85
2023/05/23 14:15:01;;;;;;;1999.90;999.90;;;19.20;99.90;;;;;;6705962;88;20285;-84
2023/05/23 14:25:02;;;;;;;1999.90;999.90;;;19.80;99.90;;;;;;6743488;88;20185;-84
2023/05/23 14:35:03;;;;;;;1999.90;999.90;;;19.60;99.90;;;;;;6698660;88;20172;-83
2023/05/23 14:45:05;;;;;;;1999.90;999.90;;;19.20;99.90;;;;;;6647891;89;20287;-83
2023/05/23 14:55:06;;;;;;;1999.90;999.90;;;19.80;99.90;;;;;;6630689;89;20178;-85
2023/05/23 15:15:10;;;;;;;1999.90;999.90;;;19.80;99.10;;;;;;6757416;87;20332;-82
2023/05/23 15:25:11;;;;;;;1999.90;999.90;;;19.90;97.50;;;;;;6766688;87;20200;-82
2023/05/23 15:35:11;;;;;;;1999.90;999.90;;;20.80;96.40;;;;;;6775127;87;20643;-81
2023/05/23 15:45:12;;;;;;;1999.90;999.90;;;20.40;96.70;;;;;;6753330;88;20615;-81
2023/05/23 15:55:13;;;;;;;1999.90;999.90;;;19.80;96.70;;;;;;6732251;88;20194;-81
2023/05/23 16:05:13;;;;;;;1999.90;999.90;;;20.20;97.00;;;;;;6740129;88;20184;-84
2023/05/23 16:15:14;;;;;;;1999.90;999.90;;;20.90;96.90;;;;;;6760765;88;21064;-83
2023/05/23 16:25:14;;;;;;;1999.90;999.90;;;20.50;96.10;;;;;;6753640;88;20203;-83
2023/05/23 16:35:15;;;;;;;1999.90;999.90;;;19.50;96.80;;;;;;6751717;88;20187;-81
2023/05/23 16:45:15;;;;;;;1999.90;999.90;;;18.70;97.60;;;;;;6756650;88;20195;-80
2023/05/23 16:55:57;;;;;;;1999.90;999.90;;;18.50;98.30;;;;;;6728384;78;20225;-81
2023/05/23 17:05:57;;;;;;;1999.90;999.90;;;18.30;98.00;;;;;;6707174;87;20316;-84
2023/05/23 17:15:58;;;;;;;1999.90;999.90;;;18.10;97.50;;;;;;6713176;87;20166;-83
2023/05/23 17:25:58;;;;;;;1999.90;999.90;;;17.60;98.00;;;;;;6713907;87;20203;-83
2023/05/23 17:35:59;;;;;;;1999.90;999.90;;;17.70;98.00;;;;;;6693117;89;20805;-82
2023/05/23 18:18:07;;;;;;;1999.90;999.90;;;16.90;99.40;;;;;;6796644;87;20199;-82
2023/05/23 18:28:07;;;;;;;1999.90;999.90;;;16.90;99.60;;;;;;6797465;87;20647;-82
2023/05/23 18:38:08;;;;;;;1999.90;999.90;;;16.60;99.60;;;;;;6763454;88;20914;-83
2023/05/23 18:48:08;;;;;;;1999.90;999.90;;;16.20;99.90;;;;;;6718293;77;20209;-79
2023/05/23 18:58:09;;;;;;;1999.90;999.90;;;15.90;99.90;;;;;;6688434;89;20194;-81
2023/05/23 19:08:10;;;;;;;1999.90;999.90;;;15.70;99.90;;;;;;6690490;89;20175;-80
2023/05/23 19:18:10;;;;;;;1999.90;999.90;;;15.50;99.90;;;;;;6713981;87;20208;-82
2023/05/23 19:28:13;;;;;;;1999.90;999.90;;;15.40;99.90;;;;;;6677904;88;20187;-80
2023/05/23 19:38:14;;;;;;;1999.90;999.90;;;15.20;99.90;;;;;;6682320;88;20186;-80
2023/05/23 19:48:15;;;;;;;1999.90;999.90;;;15.00;99.90;;;;;;6687961;87;20224;-80
2023/05/23 19:58:17;;;;;;;1999.90;999.90;;;14.60;99.90;;;;;;6681334;89;20299;-81
2023/05/23 20:08:17;;;;;;;1999.90;999.90;;;14.50;99.90;;;;;;6682584;89;20194;-82
2023/05/23 20:18:18;;;;;;;1999.90;999.90;;;14.40;99.90;;;;;;6680511;89;20178;-81
2023/05/23 20:28:18;;;;;;;1999.90;999.90;;;14.30;99.90;;;;;;6666653;89;20278;-84
2023/05/23 20:38:19;;;;;;;1999.90;999.90;;;14.20;99.90;;;;;;6668789;89;20622;-84
2023/05/23 20:48:20;;;;;;;1999.90;999.90;;;14.20;99.90;;;;;;6663659;89;20226;-81
2023/05/23 20:58:20;;;;;;;1999.90;999.90;;;14.00;99.90;;;;;;6656949;89;20559;-81
2023/05/23 21:08:21;;;;;;;1999.90;999.90;;;13.90;99.90;;;;;;6657048;89;20192;-80
2023/05/23 21:18:22;;;;;;;1999.90;999.90;;;13.70;99.90;;;;;;6657500;89;20221;-82
2023/05/23 21:28:22;;;;;;;1999.90;999.90;;;13.40;99.90;;;;;;6656568;89;20342;-81
2023/05/23 21:38:23;;;;;;;1999.90;999.90;;;13.20;99.90;;;;;;6656665;89;20215;-80
2023/05/23 21:48:24;;;;;;;1999.90;999.90;;;13.10;99.90;;;;;;6656029;89;20310;-80
2023/05/23 21:58:24;;;;;;;1999.90;999.90;;;12.90;99.90;;;;;;6656153;89;20302;-80
2023/05/23 22:08:30;;;;;;;1999.90;999.90;;;12.70;99.90;;;;;;6656331;89;20319;-80
2023/05/23 22:18:34;;;;;;;1999.90;999.90;;;12.60;99.90;;;;;;6655115;89;20176;-80
2023/05/23 22:28:34;;;;;;;1999.90;999.90;;;12.40;99.90;;;;;;6655796;89;20590;-80
2023/05/23 22:38:36;;;;;;;1999.90;999.90;;;12.20;99.90;;;;;;6656345;89;20237;-81
2023/05/23 22:48:37;;;;;;;1999.90;999.90;;;12.10;99.90;;;;;;6665731;88;20251;-81
2023/05/23 22:58:38;;;;;;;1999.90;999.90;;;11.90;99.90;;;;;;6677416;88;20312;-80
2023/05/23 23:08:38;;;;;;;1999.90;999.90;;;11.80;99.90;;;;;;6677157;89;20204;-80
2023/05/23 23:18:40;;;;;;;1999.90;999.90;;;11.60;99.90;;;;;;6687252;89;20672;-79
2023/05/23 23:28:40;;;;;;;1999.90;999.90;;;11.60;99.90;;;;;;6686184;89;20183;-81
2023/05/23 23:38:41;;;;;;;1999.90;999.90;;;11.40;99.90;;;;;;6680356;89;20209;-81
2023/05/23 23:48:41;;;;;;;1999.90;999.90;;;11.30;99.90;;;;;;6679533;89;20215;-80
2023/05/23 23:58:42;;;;;;;1999.90;999.90;;;11.20;99.90;;;;;;6694518;88;20194;-80
